createdAt,value
2023-02-01T00:00:21.288Z,99.90
2023-02-01T00:02:49.746Z,99.90
2023-02-01T00:05:18.045Z,99.90
2023-02-01T00:07:48.894Z,99.90
2023-02-01T00:10:17.337Z,99.90
2023-02-01T00:12:45.682Z,99.90
2023-02-01T00:15:13.911Z,99.90
2023-02-01T00:17:42.132Z,99.90
2023-02-01T00:20:11.992Z,99.90
2023-02-01T00:22:40.245Z,99.90
2023-02-01T00:25:10.619Z,99.90
2023-02-01T00:27:38.920Z,99.90
2023-02-01T00:30:08.381Z,99.90
2023-02-01T00:32:36.719Z,99.90
2023-02-01T00:35:05.416Z,99.90
2023-02-01T00:37:33.726Z,95.70
2023-02-01T00:40:02.095Z,19.30
2023-02-01T00:42:32.812Z,1.00
2023-02-01T00:45:01.126Z,1.00
2023-02-01T00:47:29.696Z,1.00
2023-02-01T00:49:57.923Z,1.00
2023-02-01T00:52:26.269Z,99.90
2023-02-01T00:54:54.543Z,1.00
2023-02-01T00:57:22.762Z,99.90
2023-02-01T00:59:52.523Z,99.90
2023-02-01T01:02:20.825Z,99.90
2023-02-01T01:04:49.112Z,99.90
2023-02-01T01:07:17.353Z,1.00
2023-02-01T01:09:45.790Z,99.90
2023-02-01T01:12:14.093Z,99.90
2023-02-01T01:14:42.325Z,1.00
2023-02-01T01:17:12.200Z,1.00
2023-02-01T01:19:40.578Z,32.10
2023-02-01T01:22:08.844Z,1.00
2023-02-01T01:24:37.271Z,1.00
2023-02-01T01:27:05.647Z,99.90
2023-02-01T01:29:33.942Z,90.60
2023-02-01T01:32:02.681Z,99.90
2023-02-01T01:34:32.324Z,99.90
2023-02-01T01:37:00.673Z,1.00
2023-02-01T01:39:28.929Z,1.00
2023-02-01T01:41:57.177Z,1.00
2023-02-01T01:45:00.482Z,1.00
2023-02-01T01:47:29.230Z,13.70
2023-02-01T01:49:58.960Z,99.90
2023-02-01T01:52:27.270Z,99.90
2023-02-01T01:54:55.597Z,1.00
2023-02-01T01:57:26.344Z,99.90
2023-02-01T01:59:57.162Z,99.90
2023-02-01T02:02:25.925Z,1.00
2023-02-01T02:04:54.187Z,99.90
2023-02-01T02:07:25.268Z,99.90
2023-02-01T02:10:00.634Z,1.00
2023-02-01T02:12:29.673Z,1.00
2023-02-01T02:14:57.978Z,99.90
2023-02-01T02:17:32.234Z,99.90
2023-02-01T02:20:27.864Z,99.90
2023-02-01T02:23:21.065Z,1.00
2023-02-01T02:26:14.701Z,1.00
2023-02-01T02:29:11.849Z,1.00
2023-02-01T02:31:49.206Z,1.00
2023-02-01T02:34:20.413Z,1.00
2023-02-01T02:36:54.367Z,1.00
2023-02-01T02:39:25.170Z,24.50
2023-02-01T02:42:14.314Z,47.30
2023-02-01T02:45:04.854Z,63.60
2023-02-01T02:47:36.176Z,90.70
2023-02-01T02:50:31.068Z,99.90
2023-02-01T02:53:18.590Z,99.90
2023-02-01T02:55:46.938Z,99.90
2023-02-01T02:58:32.605Z,99.90
2023-02-01T03:01:18.427Z,99.90
2023-02-01T03:04:09.929Z,99.90
2023-02-01T03:06:41.047Z,99.90
2023-02-01T03:09:12.670Z,99.90
2023-02-01T03:11:58.437Z,99.90
2023-02-01T03:14:26.660Z,99.90
2023-02-01T03:16:57.301Z,99.90
2023-02-01T03:19:27.408Z,99.90
2023-02-01T03:24:34.369Z,99.90
2023-02-01T03:27:05.828Z,99.90
2023-02-01T03:29:40.328Z,99.90
2023-02-01T03:32:08.716Z,99.90
2023-02-01T03:34:37.140Z,99.90
2023-02-01T03:37:07.612Z,99.90
2023-02-01T03:39:38.424Z,99.90
2023-02-01T03:42:07.653Z,99.90
2023-02-01T03:44:37.385Z,99.90
2023-02-01T03:47:08.564Z,99.90
2023-02-01T03:49:38.048Z,99.90
2023-02-01T03:52:08.234Z,99.90
2023-02-01T03:54:36.600Z,99.90
2023-02-01T03:57:07.270Z,99.90
2023-02-01T03:59:35.495Z,99.90
2023-02-01T04:02:03.775Z,99.90
2023-02-01T04:04:32.160Z,99.90
2023-02-01T04:07:00.544Z,99.90
2023-02-01T04:09:30.245Z,99.90
2023-02-01T04:11:58.600Z,99.90
2023-02-01T04:14:26.882Z,99.90
2023-02-01T04:16:55.311Z,99.90
2023-02-01T04:19:23.678Z,99.90
2023-02-01T04:21:51.949Z,99.90
2023-02-01T04:24:20.165Z,99.90
2023-02-01T04:26:49.894Z,99.90
2023-02-01T04:29:18.171Z,99.90
2023-02-01T04:31:47.410Z,99.90
2023-02-01T04:34:15.706Z,99.90
2023-02-01T04:36:46.340Z,99.90
2023-02-01T04:39:15.574Z,99.90
2023-02-01T04:41:43.813Z,99.90
2023-02-01T04:44:14.973Z,99.90
2023-02-01T04:46:43.322Z,99.90
2023-02-01T04:49:11.672Z,1.00
2023-02-01T04:51:39.931Z,1.00
2023-02-01T04:54:08.199Z,1.00
2023-02-01T04:56:36.962Z,1.00
2023-02-01T04:59:05.235Z,1.00
2023-02-01T05:01:34.962Z,1.00
2023-02-01T05:04:03.290Z,1.00
2023-02-01T05:06:31.534Z,1.00
2023-02-01T05:08:59.784Z,99.90
2023-02-01T05:11:41.873Z,99.90
2023-02-01T05:14:10.105Z,99.90
2023-02-01T05:16:39.756Z,99.90
2023-02-01T05:19:08.003Z,99.90
2023-02-01T05:21:36.257Z,99.90
2023-02-01T05:24:15.906Z,99.90
2023-02-01T05:26:44.240Z,99.90
2023-02-01T05:29:12.772Z,99.90
2023-02-01T05:31:42.498Z,99.90
2023-02-01T05:34:10.880Z,99.90
2023-02-01T05:36:39.115Z,99.90
2023-02-01T05:39:07.340Z,99.90
2023-02-01T05:41:35.658Z,99.90
2023-02-01T05:44:03.909Z,99.90
2023-02-01T05:46:32.199Z,99.90
2023-02-01T05:49:01.902Z,99.90
2023-02-01T05:51:30.172Z,99.90
2023-02-01T05:53:58.405Z,99.90
2023-02-01T05:56:26.824Z,99.90
2023-02-01T05:58:55.060Z,99.90
2023-02-01T06:01:23.330Z,99.90
2023-02-01T06:03:51.600Z,44.20
2023-02-01T06:06:21.293Z,1.00
2023-02-01T06:08:49.526Z,1.00
2023-02-01T06:11:31.690Z,1.00
2023-02-01T06:14:00.608Z,1.00
2023-02-01T06:16:29.932Z,1.00
2023-02-01T06:18:58.170Z,1.00
2023-02-01T06:21:27.918Z,99.90
2023-02-01T06:23:56.536Z,99.90
2023-02-01T06:26:24.850Z,1.00
2023-02-01T06:28:53.480Z,1.00
2023-02-01T06:31:21.788Z,99.90
2023-02-01T06:33:50.188Z,99.90
2023-02-01T06:36:19.820Z,99.90
2023-02-01T06:38:49.583Z,99.90
2023-02-01T06:41:18.002Z,1.00
2023-02-01T06:43:46.676Z,1.00
2023-02-01T06:46:15.329Z,99.90
2023-02-01T06:48:43.767Z,99.90
2023-02-01T06:51:23.777Z,1.00
2023-02-01T06:53:53.552Z,99.90
2023-02-01T06:56:22.019Z,17.70
2023-02-01T06:58:50.385Z,1.00
2023-02-01T07:01:18.849Z,99.90
2023-02-01T07:03:49.776Z,99.90
2023-02-01T07:06:18.042Z,99.90
2023-02-01T07:08:46.475Z,99.90
2023-02-01T07:11:17.059Z,99.90
2023-02-01T07:13:45.553Z,87.40
2023-02-01T07:16:14.754Z,99.90
2023-02-01T07:18:43.145Z,29.40
2023-02-01T07:21:11.463Z,1.00
2023-02-01T07:23:39.724Z,1.00
2023-02-01T07:26:09.025Z,1.00
2023-02-01T07:28:38.782Z,1.00
2023-02-01T07:31:07.471Z,1.00
2023-02-01T07:33:35.783Z,1.00
2023-02-01T07:36:04.769Z,1.00
2023-02-01T07:38:33.015Z,1.00
2023-02-01T07:41:01.667Z,1.00
2023-02-01T07:43:30.008Z,1.00
2023-02-01T07:45:59.785Z,99.90
2023-02-01T07:48:28.248Z,99.90
2023-02-01T07:51:00.580Z,1.00
2023-02-01T07:53:28.904Z,99.90
2023-02-01T07:55:57.968Z,99.90
2023-02-01T07:58:26.243Z,99.90
2023-02-01T08:01:12.346Z,99.90
2023-02-01T08:03:42.010Z,99.90
2023-02-01T08:06:10.243Z,99.90
2023-02-01T08:08:38.762Z,99.90
2023-02-01T08:11:07.668Z,99.90
2023-02-01T08:13:36.202Z,99.90
2023-02-01T08:16:05.525Z,99.90
2023-02-01T08:18:33.830Z,99.90
2023-02-01T08:21:07.458Z,99.90
2023-02-01T08:23:35.768Z,99.90
2023-02-01T08:26:08.926Z,99.90
2023-02-01T08:28:38.017Z,99.90
2023-02-01T08:31:08.059Z,99.90
2023-02-01T08:33:36.826Z,99.90
2023-02-01T08:36:07.675Z,99.90
2023-02-01T08:38:37.751Z,99.90
2023-02-01T08:41:09.285Z,99.90
2023-02-01T08:43:37.565Z,99.90
2023-02-01T08:46:06.095Z,99.90
2023-02-01T08:48:34.356Z,99.90
2023-02-01T08:51:04.028Z,82.30
2023-02-01T08:53:33.672Z,36.90
2023-02-01T08:56:02.134Z,20.20
2023-02-01T08:58:30.393Z,23.60
2023-02-01T09:00:58.706Z,5.00
2023-02-01T09:03:27.083Z,16.70
2023-02-01T09:06:00.333Z,11.10
2023-02-01T09:08:28.676Z,7.30
2023-02-01T09:11:03.288Z,1.00
2023-02-01T09:13:31.954Z,1.00
2023-02-01T09:16:01.143Z,1.00
2023-02-01T09:18:29.482Z,1.00
2023-02-01T09:20:57.805Z,1.00
2023-02-01T09:23:26.084Z,1.00
2023-02-01T09:25:54.469Z,1.00
2023-02-01T09:28:24.167Z,1.00
2023-02-01T09:30:52.527Z,1.00
2023-02-01T09:33:22.335Z,1.00
2023-02-01T09:35:50.675Z,1.00
2023-02-01T09:38:18.894Z,1.00
2023-02-01T09:40:48.768Z,1.00
2023-02-01T09:43:27.425Z,1.00
2023-02-01T09:46:01.201Z,1.00
2023-02-01T09:48:31.277Z,1.00
2023-02-01T09:51:00.425Z,1.00
2023-02-01T09:53:31.075Z,1.00
2023-02-01T09:56:02.544Z,1.00
2023-02-01T09:58:33.360Z,1.00
2023-02-01T10:01:02.913Z,1.00
2023-02-01T10:03:32.080Z,1.00
2023-02-01T10:06:11.716Z,1.00
2023-02-01T10:08:51.197Z,1.00
2023-02-01T10:11:24.148Z,1.00
2023-02-01T10:13:57.346Z,1.00
2023-02-01T10:16:32.708Z,1.00
2023-02-01T10:19:12.568Z,1.00
2023-02-01T10:21:46.173Z,1.00
2023-02-01T10:24:44.140Z,1.00
2023-02-01T10:27:17.472Z,1.00
2023-02-01T10:29:47.870Z,1.00
2023-02-01T10:32:17.640Z,1.00
2023-02-01T10:34:46.901Z,1.00
2023-02-01T10:37:25.889Z,1.00
2023-02-01T10:39:55.798Z,1.00
2023-02-01T10:42:26.440Z,1.00
2023-02-01T10:44:56.735Z,1.00
2023-02-01T10:47:24.974Z,1.00
2023-02-01T10:49:57.903Z,1.00
2023-02-01T10:52:32.388Z,1.00
2023-02-01T10:55:02.738Z,1.00
2023-02-01T10:57:32.933Z,1.00
2023-02-01T11:00:05.166Z,1.00
2023-02-01T11:02:34.823Z,1.00
2023-02-01T11:05:03.793Z,99.90
2023-02-01T11:07:32.296Z,99.90
2023-02-01T11:10:00.536Z,99.90
2023-02-01T11:12:31.579Z,99.90
2023-02-01T11:15:05.833Z,99.90
2023-02-01T11:17:36.078Z,99.90
2023-02-01T11:20:06.721Z,1.00
2023-02-01T11:22:34.994Z,1.00
2023-02-01T11:25:04.003Z,1.00
2023-02-01T11:27:33.368Z,1.00
2023-02-01T11:30:03.258Z,1.00
2023-02-01T11:32:33.067Z,1.00
2023-02-01T11:35:04.095Z,1.00
2023-02-01T11:37:33.666Z,1.00
2023-02-01T11:40:02.639Z,1.00
2023-02-01T11:42:30.988Z,1.00
2023-02-01T11:45:20.917Z,1.00
2023-02-01T11:47:50.963Z,1.00
2023-02-01T11:50:22.356Z,1.00
2023-02-01T11:52:58.042Z,1.00
2023-02-01T11:55:41.947Z,1.00
2023-02-01T11:58:19.797Z,1.00
2023-02-01T12:00:59.191Z,1.00
2023-02-01T12:03:55.233Z,1.00
2023-02-01T12:06:27.969Z,1.00
2023-02-01T12:09:20.963Z,1.00
2023-02-01T12:11:54.396Z,1.00
2023-02-01T12:14:30.415Z,1.00
2023-02-01T12:17:08.888Z,1.00
2023-02-01T12:19:45.946Z,1.00
2023-02-01T12:22:21.558Z,99.90
2023-02-01T12:25:17.283Z,99.90
2023-02-01T12:28:13.839Z,99.90
2023-02-01T12:31:07.369Z,99.90
2023-02-01T12:33:41.808Z,99.90
2023-02-01T12:36:16.394Z,99.90
2023-02-01T12:38:52.549Z,99.90
2023-02-01T12:42:01.088Z,99.90
2023-02-01T12:44:37.741Z,99.90
2023-02-01T12:47:08.940Z,99.90
2023-02-01T12:49:46.009Z,99.90
2023-02-01T12:52:19.021Z,99.90
2023-02-01T12:54:50.962Z,99.90
2023-02-01T12:57:21.013Z,99.90
2023-02-01T12:59:52.148Z,1.00
2023-02-01T13:02:24.533Z,1.00
2023-02-01T13:05:00.015Z,1.00
2023-02-01T13:07:31.713Z,1.00
2023-02-01T13:10:03.998Z,1.00
2023-02-01T13:12:36.015Z,1.00
2023-02-01T13:15:06.303Z,1.00
2023-02-01T13:17:35.427Z,1.00
2023-02-01T13:20:06.497Z,1.00
2023-02-01T13:22:37.759Z,1.00
2023-02-01T13:25:07.039Z,1.00
2023-02-01T13:27:35.345Z,1.00
2023-02-01T13:30:04.862Z,1.00
2023-02-01T13:33:54.306Z,1.00
2023-02-01T13:36:17.021Z,1.00
2023-02-01T13:39:13.936Z,1.00
2023-02-01T13:41:43.978Z,1.00
2023-02-01T13:44:25.342Z,1.00
2023-02-01T13:46:53.660Z,1.00
2023-02-01T13:49:23.689Z,1.00
2023-02-01T13:51:53.333Z,1.00
2023-02-01T13:54:31.417Z,1.00
2023-02-01T13:57:01.188Z,1.00
2023-02-01T13:59:55.889Z,1.00
2023-02-01T14:02:50.220Z,1.00
2023-02-01T14:05:51.277Z,43.80
2023-02-01T14:08:24.657Z,99.90
2023-02-01T14:10:56.899Z,99.90
2023-02-01T14:13:28.837Z,99.90
2023-02-01T14:16:20.941Z,99.90
2023-02-01T14:18:59.579Z,1.00
2023-02-01T14:21:29.764Z,1.00
2023-02-01T14:24:01.436Z,1.00
2023-02-01T14:26:45.080Z,99.90
2023-02-01T14:29:23.841Z,99.90
2023-02-01T14:32:17.321Z,6.80
2023-02-01T14:34:53.571Z,99.90
2023-02-01T14:37:31.435Z,99.90
2023-02-01T14:40:03.440Z,99.90
2023-02-01T14:42:35.903Z,99.90
2023-02-01T14:45:40.974Z,99.90
2023-02-01T14:48:44.462Z,99.90
2023-02-01T14:51:14.012Z,1.00
2023-02-01T14:53:44.104Z,1.00
2023-02-01T14:56:15.144Z,25.80
2023-02-01T14:58:46.380Z,99.90
2023-02-01T15:01:23.361Z,99.90
2023-02-01T15:03:55.623Z,99.90
2023-02-01T15:06:29.055Z,1.00
2023-02-01T15:08:58.924Z,1.00
2023-02-01T15:11:27.348Z,1.00
2023-02-01T15:13:58.236Z,1.00
2023-02-01T15:16:27.188Z,1.00
2023-02-01T15:19:11.108Z,15.40
2023-02-01T15:21:47.020Z,68.20
2023-02-01T15:24:15.672Z,99.90
2023-02-01T15:26:44.030Z,99.90
2023-02-01T15:29:15.311Z,99.90
2023-02-01T15:31:45.699Z,99.90
2023-02-01T15:34:14.220Z,99.90
2023-02-01T15:36:53.559Z,99.90
2023-02-01T15:39:30.535Z,99.90
2023-02-01T15:42:01.952Z,99.90
2023-02-01T15:44:43.665Z,99.90
2023-02-01T15:47:17.879Z,99.90
2023-02-01T15:49:47.219Z,99.90
2023-02-01T15:52:23.750Z,99.90
2023-02-01T15:54:53.854Z,99.90
2023-02-01T15:57:23.449Z,99.90
2023-02-01T15:59:56.251Z,99.90
2023-02-01T16:02:36.551Z,99.90
2023-02-01T16:05:05.346Z,99.90
2023-02-01T16:07:34.449Z,99.90
2023-02-01T16:10:07.997Z,99.90
2023-02-01T16:12:48.615Z,99.90
2023-02-01T16:15:18.452Z,99.90
2023-02-01T16:17:46.900Z,99.90
2023-02-01T16:20:16.087Z,99.90
2023-02-01T16:22:44.355Z,99.90
2023-02-01T16:25:12.673Z,99.90
2023-02-01T16:27:40.975Z,99.90
2023-02-01T16:30:11.105Z,99.90
2023-02-01T16:32:40.837Z,99.90
2023-02-01T16:35:13.311Z,99.90
2023-02-01T16:37:41.594Z,99.90
2023-02-01T16:40:14.923Z,99.90
2023-02-01T16:42:43.232Z,99.90
2023-02-01T16:45:12.033Z,99.90
2023-02-01T16:47:52.302Z,99.90
2023-02-01T16:50:23.778Z,99.90
2023-02-01T16:52:54.053Z,99.90
2023-02-01T16:55:24.029Z,99.90
2023-02-01T16:57:52.738Z,99.90
2023-02-01T17:00:24.967Z,99.90
2023-02-01T17:02:55.359Z,99.90
2023-02-01T17:05:24.217Z,99.90
2023-02-01T17:07:52.880Z,99.90
2023-02-01T17:10:33.356Z,99.90
2023-02-01T17:13:02.848Z,99.90
2023-02-01T17:15:35.639Z,99.90
2023-02-01T17:18:05.535Z,99.90
2023-02-01T17:20:34.029Z,99.90
2023-02-01T17:23:02.371Z,99.90
2023-02-01T17:25:30.613Z,9.80
2023-02-01T17:27:59.167Z,1.00
2023-02-01T17:30:27.455Z,1.00
2023-02-01T17:32:56.983Z,1.00
2023-02-01T17:35:28.338Z,99.90
2023-02-01T17:37:56.772Z,99.90
2023-02-01T17:40:25.438Z,99.90
2023-02-01T17:42:57.634Z,99.90
2023-02-01T17:45:41.378Z,99.90
2023-02-01T17:48:10.023Z,99.90
2023-02-01T17:50:39.779Z,99.90
2023-02-01T17:53:10.015Z,99.90
2023-02-01T17:55:39.870Z,99.90
2023-02-01T17:58:08.118Z,1.00
2023-02-01T18:00:38.107Z,99.90
2023-02-01T18:03:07.263Z,99.90
2023-02-01T18:05:41.662Z,99.90
2023-02-01T18:08:10.009Z,99.90
2023-02-01T18:10:38.375Z,99.90
2023-02-01T18:13:06.723Z,99.90
2023-02-01T18:15:35.248Z,99.90
2023-02-01T18:18:03.558Z,99.90
2023-02-01T18:20:31.817Z,99.90
2023-02-01T18:23:01.451Z,99.90
2023-02-01T18:25:34.159Z,99.90
2023-02-01T18:28:02.437Z,99.90
2023-02-01T18:30:32.125Z,99.90
2023-02-01T18:33:00.556Z,99.90
2023-02-01T18:35:30.450Z,99.90
2023-02-01T18:38:00.091Z,99.90
2023-02-01T18:40:29.951Z,99.90
2023-02-01T18:42:58.354Z,99.90
2023-02-01T18:45:32.502Z,99.90
2023-02-01T18:48:01.122Z,99.90
2023-02-01T18:50:29.967Z,99.90
2023-02-01T18:53:00.389Z,1.00
2023-02-01T18:55:29.209Z,1.00
2023-02-01T18:57:57.481Z,99.90
2023-02-01T19:00:25.936Z,75.50
2023-02-01T19:02:54.245Z,1.00
2023-02-01T19:05:23.019Z,1.00
2023-02-01T19:07:51.525Z,25.00
2023-02-01T19:10:23.242Z,99.90
2023-02-01T19:12:51.767Z,99.90
2023-02-01T19:15:20.272Z,99.90
2023-02-01T19:17:50.554Z,99.90
2023-02-01T19:20:20.003Z,99.90
2023-02-01T19:22:48.464Z,99.90
2023-02-01T19:25:21.852Z,99.90
2023-02-01T19:27:52.029Z,1.00
2023-02-01T19:30:21.057Z,1.00
2023-02-01T19:32:49.601Z,1.00
2023-02-01T19:35:19.597Z,6.30
2023-02-01T19:37:48.016Z,99.90
2023-02-01T19:40:17.501Z,99.90
2023-02-01T19:42:46.618Z,99.90
2023-02-01T19:45:16.365Z,99.90
2023-02-01T19:47:44.683Z,99.90
2023-02-01T19:50:16.761Z,99.90
2023-02-01T19:52:45.880Z,99.90
2023-02-01T19:55:14.169Z,99.90
2023-02-01T19:57:43.962Z,99.90
2023-02-01T20:00:15.439Z,99.90
2023-02-01T20:02:46.362Z,99.90
2023-02-01T20:05:15.392Z,99.90
2023-02-01T20:07:43.887Z,99.90
2023-02-01T20:10:12.586Z,99.90
2023-02-01T20:12:40.958Z,99.90
2023-02-01T20:15:09.863Z,99.90
2023-02-01T20:17:38.360Z,99.90
2023-02-01T20:20:09.166Z,99.90
2023-02-01T20:22:37.553Z,99.90
2023-02-01T20:25:06.479Z,99.90
2023-02-01T20:27:35.581Z,99.90
2023-02-01T20:30:04.130Z,99.90
2023-02-01T20:32:32.461Z,99.90
2023-02-01T20:35:00.767Z,99.90
2023-02-01T20:37:30.520Z,99.90
2023-02-01T20:39:58.760Z,1.00
2023-02-01T20:42:27.044Z,1.00
2023-02-01T20:44:55.359Z,1.00
2023-02-01T20:47:23.734Z,1.00
2023-02-01T20:49:52.038Z,99.90
2023-02-01T20:52:20.314Z,99.90
2023-02-01T20:54:49.993Z,99.90
2023-02-01T20:57:18.329Z,99.90
2023-02-01T20:59:49.315Z,1.00
2023-02-01T21:02:17.585Z,1.00
2023-02-01T21:04:45.988Z,1.00
2023-02-01T21:07:14.398Z,99.90
2023-02-01T21:09:43.366Z,99.90
2023-02-01T21:12:13.448Z,1.00
2023-02-01T21:14:41.800Z,1.00
2023-02-01T21:17:10.202Z,99.90
2023-02-01T21:19:44.010Z,99.90
2023-02-01T21:22:12.563Z,99.90
2023-02-01T21:24:41.259Z,1.00
2023-02-01T21:27:09.588Z,1.00
2023-02-01T21:29:39.287Z,1.00
2023-02-01T21:32:07.853Z,1.00
2023-02-01T21:34:36.330Z,7.80
2023-02-01T21:37:04.772Z,99.90
2023-02-01T21:39:33.027Z,99.90
2023-02-01T21:42:17.653Z,99.90
2023-02-01T21:44:47.688Z,99.90
2023-02-01T21:47:17.656Z,99.90
2023-02-01T21:49:46.252Z,99.90
2023-02-01T21:52:14.990Z,99.90
2023-02-01T21:54:43.285Z,99.90
2023-02-01T21:57:12.447Z,99.90
2023-02-01T21:59:40.994Z,99.90
2023-02-01T22:02:13.172Z,99.90
2023-02-01T22:04:41.471Z,99.90
2023-02-01T22:07:09.968Z,99.90
2023-02-01T22:09:38.415Z,99.90
2023-02-01T22:12:08.545Z,99.90
2023-02-01T22:14:36.798Z,99.90
2023-02-01T22:17:05.169Z,99.90
2023-02-01T22:19:34.917Z,99.90
2023-02-01T22:22:03.325Z,99.90
2023-02-01T22:24:31.619Z,99.90
2023-02-01T22:27:13.504Z,99.90
2023-02-01T22:29:43.322Z,99.90
2023-02-01T22:32:13.304Z,99.90
2023-02-01T22:34:42.992Z,99.90
2023-02-01T22:37:12.192Z,52.60
2023-02-01T22:39:40.965Z,5.00
2023-02-01T22:42:09.231Z,1.00
2023-02-01T22:44:37.637Z,1.00
2023-02-01T22:47:06.060Z,1.00
2023-02-01T22:49:34.310Z,1.00
2023-02-01T22:52:04.035Z,99.90
2023-02-01T22:54:32.368Z,99.90
2023-02-01T22:57:01.268Z,23.30
2023-02-01T22:59:29.491Z,1.00
2023-02-01T23:01:57.840Z,1.00
2023-02-01T23:04:26.207Z,1.00
2023-02-01T23:06:54.493Z,1.00
2023-02-01T23:09:25.215Z,1.00
2023-02-01T23:11:53.495Z,1.00
2023-02-01T23:14:21.756Z,1.00
2023-02-01T23:16:50.716Z,1.00
2023-02-01T23:19:20.468Z,46.80
2023-02-01T23:21:48.966Z,99.90
2023-02-01T23:24:17.212Z,99.90
2023-02-01T23:26:46.918Z,99.90
2023-02-01T23:29:18.676Z,99.90
2023-02-01T23:31:47.050Z,99.90
2023-02-01T23:34:15.329Z,1.00
2023-02-01T23:36:43.652Z,1.00
2023-02-01T23:39:11.891Z,1.00
2023-02-01T23:41:40.106Z,5.00
2023-02-01T23:44:09.887Z,7.60
2023-02-01T23:46:39.231Z,83.10
2023-02-01T23:49:08.850Z,99.90
2023-02-01T23:51:37.242Z,99.90
2023-02-01T23:54:05.756Z,99.90
2023-02-01T23:56:35.003Z,99.90
2023-02-01T23:59:03.631Z,99.90
